Search for airport 
image banner adimage banner adimage banner ad
image banner ad

KNFG - Camp Pendleton Mcas (Munn Field)

Located in Oceanside, United States

ICAO - NFG, IATA -

Data provided by Airmate  

General information

Coordinates: N33°18'5" W117°21'19"
Elevation is 78 feet MSL.
Magnetic variation is 13° East
View others Airports in California

Operational data

Special qualification required
Current time UTC:
Current local time:
Weather
METAR: KNFG 150955Z AUTO 00000KT 10SM CLR 16/13 A2986 RMK AO2 SLP112 T01610128 $
TAF: TAF KNFG 1503/1603 VRB05KT 9999 FEW150 QNH2985INS TEMPO 1508/1514 6000 BR FM151845 23010G20KT 9999 SKC QNH2978INS T13/1512Z T32/1521Z
View NOTAMs / SUP AIP / TFR affecting this airport [VIEW]
Communications frequencies: [VIEW]

Runways:

RWY identifierQFULength (ft)Width (ft)SurfaceLDA (ft)
036006221ASPH
216006221ASPH

Airport contact information

Address: Oceanside United States

Satellite view of KNFG